sensor_id;sensor_type;location;lat;lon;timestamp;P1;durP1;ratioP1;P2;durP2;ratioP2
44248;SDS011;29923;48.718;9.272;2022-07-10T00:01:10;6.50;;;3.28;;
44248;SDS011;29923;48.718;9.272;2022-07-10T00:03:35;6.28;;;3.25;;
44248;SDS011;29923;48.718;9.272;2022-07-10T00:06:01;4.75;;;3.72;;
44248;SDS011;29923;48.718;9.272;2022-07-10T00:08:26;6.90;;;3.70;;
44248;SDS011;29923;48.718;9.272;2022-07-10T00:10:52;7.03;;;4.22;;
44248;SDS011;29923;48.718;9.272;2022-07-10T00:13:17;4.90;;;3.85;;
44248;SDS011;29923;48.718;9.272;2022-07-10T00:15:43;4.63;;;3.42;;
44248;SDS011;29923;48.718;9.272;2022-07-10T00:18:08;5.25;;;3.85;;
44248;SDS011;29923;48.718;9.272;2022-07-10T00:20:33;8.25;;;3.65;;
44248;SDS011;29923;48.718;9.272;2022-07-10T00:23:00;6.97;;;4.15;;
44248;SDS011;29923;48.718;9.272;2022-07-10T00:25:25;6.32;;;3.35;;
44248;SDS011;29923;48.718;9.272;2022-07-10T00:27:51;13.07;;;4.43;;
44248;SDS011;29923;48.718;9.272;2022-07-10T00:30:16;5.53;;;4.03;;
44248;SDS011;29923;48.718;9.272;2022-07-10T00:32:42;5.03;;;3.80;;
44248;SDS011;29923;48.718;9.272;2022-07-10T00:35:07;8.75;;;3.33;;
44248;SDS011;29923;48.718;9.272;2022-07-10T00:37:33;14.10;;;3.85;;
44248;SDS011;29923;48.718;9.272;2022-07-10T00:39:58;8.68;;;3.35;;
44248;SDS011;29923;48.718;9.272;2022-07-10T00:42:25;4.97;;;3.60;;
44248;SDS011;29923;48.718;9.272;2022-07-10T00:44:50;8.30;;;3.90;;
44248;SDS011;29923;48.718;9.272;2022-07-10T00:47:16;7.53;;;3.75;;
44248;SDS011;29923;48.718;9.272;2022-07-10T00:49:44;9.70;;;3.85;;
44248;SDS011;29923;48.718;9.272;2022-07-10T00:52:10;10.27;;;3.75;;
44248;SDS011;29923;48.718;9.272;2022-07-10T00:54:38;4.35;;;3.78;;
44248;SDS011;29923;48.718;9.272;2022-07-10T00:57:06;7.10;;;3.50;;
44248;SDS011;29923;48.718;9.272;2022-07-10T00:59:31;4.75;;;3.50;;
44248;SDS011;29923;48.718;9.272;2022-07-10T01:01:57;4.28;;;2.63;;
44248;SDS011;29923;48.718;9.272;2022-07-10T01:04:22;3.30;;;2.88;;
44248;SDS011;29923;48.718;9.272;2022-07-10T01:06:49;4.43;;;2.88;;
44248;SDS011;29923;48.718;9.272;2022-07-10T01:09:14;4.82;;;2.88;;
44248;SDS011;29923;48.718;9.272;2022-07-10T01:11:40;3.75;;;2.95;;
44248;SDS011;29923;48.718;9.272;2022-07-10T01:14:05;3.72;;;2.85;;
44248;SDS011;29923;48.718;9.272;2022-07-10T01:16:31;6.00;;;2.33;;
44248;SDS011;29923;48.718;9.272;2022-07-10T01:18:57;7.82;;;2.70;;
44248;SDS011;29923;48.718;9.272;2022-07-10T01:21:26;4.28;;;3.17;;
44248;SDS011;29923;48.718;9.272;2022-07-10T01:23:56;4.90;;;2.90;;
44248;SDS011;29923;48.718;9.272;2022-07-10T01:26:22;5.18;;;3.17;;
44248;SDS011;29923;48.718;9.272;2022-07-10T01:28:48;5.40;;;3.08;;
44248;SDS011;29923;48.718;9.272;2022-07-10T01:31:14;6.20;;;3.10;;
44248;SDS011;29923;48.718;9.272;2022-07-10T01:33:40;3.65;;;2.83;;
44248;SDS011;29923;48.718;9.272;2022-07-10T01:36:06;4.43;;;3.15;;
44248;SDS011;29923;48.718;9.272;2022-07-10T01:38:32;4.00;;;3.10;;
44248;SDS011;29923;48.718;9.272;2022-07-10T01:40:57;7.32;;;3.50;;
44248;SDS011;29923;48.718;9.272;2022-07-10T01:43:23;4.40;;;2.85;;
44248;SDS011;29923;48.718;9.272;2022-07-10T01:45:48;6.13;;;3.70;;
44248;SDS011;29923;48.718;9.272;2022-07-10T01:48:14;3.55;;;2.75;;
44248;SDS011;29923;48.718;9.272;2022-07-10T01:50:39;4.82;;;2.80;;
44248;SDS011;29923;48.718;9.272;2022-07-10T01:53:04;6.63;;;3.38;;
44248;SDS011;29923;48.718;9.272;2022-07-10T01:55:31;3.90;;;3.20;;
44248;SDS011;29923;48.718;9.272;2022-07-10T01:57:56;3.83;;;3.08;;
44248;SDS011;29923;48.718;9.272;2022-07-10T02:00:22;3.03;;;2.67;;
44248;SDS011;29923;48.718;9.272;2022-07-10T02:02:48;6.28;;;3.40;;
44248;SDS011;29923;48.718;9.272;2022-07-10T02:05:34;3.47;;;2.88;;
44248;SDS011;29923;48.718;9.272;2022-07-10T02:08:00;3.58;;;3.10;;
44248;SDS011;29923;48.718;9.272;2022-07-10T02:10:28;6.28;;;2.80;;
44248;SDS011;29923;48.718;9.272;2022-07-10T02:12:53;3.45;;;3.15;;
44248;SDS011;29923;48.718;9.272;2022-07-10T02:15:19;9.07;;;3.58;;
44248;SDS011;29923;48.718;9.272;2022-07-10T02:17:44;5.55;;;3.63;;
44248;SDS011;29923;48.718;9.272;2022-07-10T02:20:10;6.63;;;3.80;;
44248;SDS011;29923;48.718;9.272;2022-07-10T02:22:36;5.05;;;3.40;;
44248;SDS011;29923;48.718;9.272;2022-07-10T02:25:01;6.85;;;3.72;;
44248;SDS011;29923;48.718;9.272;2022-07-10T02:27:26;6.15;;;4.13;;
44248;SDS011;29923;48.718;9.272;2022-07-10T02:29:52;8.98;;;4.07;;
44248;SDS011;29923;48.718;9.272;2022-07-10T02:32:18;6.28;;;3.67;;
44248;SDS011;29923;48.718;9.272;2022-07-10T02:34:43;5.47;;;3.63;;
44248;SDS011;29923;48.718;9.272;2022-07-10T02:37:09;6.47;;;4.32;;
44248;SDS011;29923;48.718;9.272;2022-07-10T02:39:34;5.10;;;4.18;;
44248;SDS011;29923;48.718;9.272;2022-07-10T02:42:00;6.20;;;3.92;;
44248;SDS011;29923;48.718;9.272;2022-07-10T02:44:25;6.07;;;4.30;;
44248;SDS011;29923;48.718;9.272;2022-07-10T02:46:50;6.18;;;4.18;;
44248;SDS011;29923;48.718;9.272;2022-07-10T02:49:16;6.80;;;5.00;;
44248;SDS011;29923;48.718;9.272;2022-07-10T02:51:41;10.00;;;5.38;;
44248;SDS011;29923;48.718;9.272;2022-07-10T02:54:07;9.13;;;5.63;;
44248;SDS011;29923;48.718;9.272;2022-07-10T02:56:32;8.70;;;6.38;;
44248;SDS011;29923;48.718;9.272;2022-07-10T02:58:58;7.10;;;6.40;;
44248;SDS011;29923;48.718;9.272;2022-07-10T03:01:24;13.15;;;6.95;;
44248;SDS011;29923;48.718;9.272;2022-07-10T03:03:49;12.48;;;7.55;;
44248;SDS011;29923;48.718;9.272;2022-07-10T03:06:14;10.68;;;8.40;;
44248;SDS011;29923;48.718;9.272;2022-07-10T03:08:40;9.40;;;7.13;;
44248;SDS011;29923;48.718;9.272;2022-07-10T03:11:06;13.98;;;7.30;;
44248;SDS011;29923;48.718;9.272;2022-07-10T03:13:32;9.95;;;7.82;;
44248;SDS011;29923;48.718;9.272;2022-07-10T03:15:57;8.65;;;7.00;;
44248;SDS011;29923;48.718;9.272;2022-07-10T03:18:22;12.05;;;8.05;;
44248;SDS011;29923;48.718;9.272;2022-07-10T03:20:48;11.18;;;7.68;;
44248;SDS011;29923;48.718;9.272;2022-07-10T03:23:13;9.57;;;7.53;;
44248;SDS011;29923;48.718;9.272;2022-07-10T03:25:39;12.43;;;8.18;;
44248;SDS011;29923;48.718;9.272;2022-07-10T03:28:04;10.77;;;7.88;;
44248;SDS011;29923;48.718;9.272;2022-07-10T03:30:30;9.40;;;7.28;;
44248;SDS011;29923;48.718;9.272;2022-07-10T03:32:55;8.20;;;7.30;;
44248;SDS011;29923;48.718;9.272;2022-07-10T03:35:21;13.25;;;8.15;;
44248;SDS011;29923;48.718;9.272;2022-07-10T03:37:46;10.90;;;7.82;;
44248;SDS011;29923;48.718;9.272;2022-07-10T03:40:11;10.77;;;7.43;;
44248;SDS011;29923;48.718;9.272;2022-07-10T03:42:37;14.13;;;7.72;;
44248;SDS011;29923;48.718;9.272;2022-07-10T03:45:02;8.13;;;7.00;;
44248;SDS011;29923;48.718;9.272;2022-07-10T03:47:28;13.93;;;8.20;;
44248;SDS011;29923;48.718;9.272;2022-07-10T03:49:53;9.38;;;8.07;;
44248;SDS011;29923;48.718;9.272;2022-07-10T03:52:19;10.15;;;8.48;;
44248;SDS011;29923;48.718;9.272;2022-07-10T03:54:44;10.07;;;6.70;;
44248;SDS011;29923;48.718;9.272;2022-07-10T03:57:09;9.93;;;6.95;;
44248;SDS011;29923;48.718;9.272;2022-07-10T03:59:53;10.43;;;7.60;;
44248;SDS011;29923;48.718;9.272;2022-07-10T04:02:18;13.52;;;7.28;;
44248;SDS011;29923;48.718;9.272;2022-07-10T04:04:44;12.65;;;7.15;;
44248;SDS011;29923;48.718;9.272;2022-07-10T04:07:10;11.27;;;7.50;;
44248;SDS011;29923;48.718;9.272;2022-07-10T04:09:37;9.98;;;7.00;;
44248;SDS011;29923;48.718;9.272;2022-07-10T04:12:03;7.55;;;6.75;;
44248;SDS011;29923;48.718;9.272;2022-07-10T04:14:28;15.25;;;10.90;;
44248;SDS011;29923;48.718;9.272;2022-07-10T04:16:54;15.68;;;12.65;;
44248;SDS011;29923;48.718;9.272;2022-07-10T04:19:19;10.80;;;8.18;;
44248;SDS011;29923;48.718;9.272;2022-07-10T04:21:46;12.07;;;7.50;;
44248;SDS011;29923;48.718;9.272;2022-07-10T04:24:12;10.32;;;7.03;;
44248;SDS011;29923;48.718;9.272;2022-07-10T04:26:37;11.50;;;7.00;;
44248;SDS011;29923;48.718;9.272;2022-07-10T04:29:02;13.88;;;6.45;;
44248;SDS011;29923;48.718;9.272;2022-07-10T04:31:28;7.55;;;5.88;;
44248;SDS011;29923;48.718;9.272;2022-07-10T04:33:53;10.32;;;6.80;;
44248;SDS011;29923;48.718;9.272;2022-07-10T04:36:20;11.65;;;6.97;;
44248;SDS011;29923;48.718;9.272;2022-07-10T04:38:45;9.43;;;6.50;;
44248;SDS011;29923;48.718;9.272;2022-07-10T04:41:11;8.45;;;5.85;;
44248;SDS011;29923;48.718;9.272;2022-07-10T04:43:36;8.77;;;5.72;;
44248;SDS011;29923;48.718;9.272;2022-07-10T04:46:01;10.88;;;6.72;;
44248;SDS011;29923;48.718;9.272;2022-07-10T04:48:27;10.07;;;5.70;;
44248;SDS011;29923;48.718;9.272;2022-07-10T04:50:52;11.68;;;6.57;;
44248;SDS011;29923;48.718;9.272;2022-07-10T04:53:18;13.23;;;7.50;;
44248;SDS011;29923;48.718;9.272;2022-07-10T04:55:43;13.50;;;7.38;;
44248;SDS011;29923;48.718;9.272;2022-07-10T04:58:08;9.35;;;7.00;;
44248;SDS011;29923;48.718;9.272;2022-07-10T05:00:34;12.15;;;6.47;;
44248;SDS011;29923;48.718;9.272;2022-07-10T05:02:59;8.98;;;6.78;;
44248;SDS011;29923;48.718;9.272;2022-07-10T05:05:25;10.40;;;6.70;;
44248;SDS011;29923;48.718;9.272;2022-07-10T05:07:50;7.82;;;5.68;;
44248;SDS011;29923;48.718;9.272;2022-07-10T05:10:16;9.65;;;5.60;;
44248;SDS011;29923;48.718;9.272;2022-07-10T05:12:41;11.07;;;5.80;;
44248;SDS011;29923;48.718;9.272;2022-07-10T05:15:06;8.15;;;4.95;;
44248;SDS011;29923;48.718;9.272;2022-07-10T05:17:32;11.73;;;4.60;;
44248;SDS011;29923;48.718;9.272;2022-07-10T05:19:58;12.40;;;4.47;;
44248;SDS011;29923;48.718;9.272;2022-07-10T05:22:24;10.05;;;5.00;;
44248;SDS011;29923;48.718;9.272;2022-07-10T05:24:49;11.15;;;4.85;;
44248;SDS011;29923;48.718;9.272;2022-07-10T05:27:15;9.02;;;4.63;;
44248;SDS011;29923;48.718;9.272;2022-07-10T05:29:44;7.88;;;4.72;;
44248;SDS011;29923;48.718;9.272;2022-07-10T05:32:09;13.75;;;5.30;;
44248;SDS011;29923;48.718;9.272;2022-07-10T05:34:34;12.52;;;5.28;;
44248;SDS011;29923;48.718;9.272;2022-07-10T05:37:00;11.38;;;4.72;;
44248;SDS011;29923;48.718;9.272;2022-07-10T05:39:25;10.07;;;5.70;;
44248;SDS011;29923;48.718;9.272;2022-07-10T05:41:51;9.15;;;5.00;;
44248;SDS011;29923;48.718;9.272;2022-07-10T05:44:17;14.05;;;5.90;;
44248;SDS011;29923;48.718;9.272;2022-07-10T05:46:44;7.97;;;5.35;;
44248;SDS011;29923;48.718;9.272;2022-07-10T05:49:10;9.88;;;5.72;;
44248;SDS011;29923;48.718;9.272;2022-07-10T05:51:35;7.43;;;5.18;;
44248;SDS011;29923;48.718;9.272;2022-07-10T05:54:00;9.13;;;3.90;;
44248;SDS011;29923;48.718;9.272;2022-07-10T05:56:26;9.13;;;4.32;;
44248;SDS011;29923;48.718;9.272;2022-07-10T05:58:51;9.20;;;3.58;;
44248;SDS011;29923;48.718;9.272;2022-07-10T06:01:17;6.38;;;2.78;;
44248;SDS011;29923;48.718;9.272;2022-07-10T06:03:42;5.80;;;2.92;;
44248;SDS011;29923;48.718;9.272;2022-07-10T06:06:07;5.78;;;2.60;;
44248;SDS011;29923;48.718;9.272;2022-07-10T06:08:33;7.75;;;3.72;;
44248;SDS011;29923;48.718;9.272;2022-07-10T06:10:58;28.95;;;21.42;;
44248;SDS011;29923;48.718;9.272;2022-07-10T06:13:24;8.57;;;3.85;;
44248;SDS011;29923;48.718;9.272;2022-07-10T06:15:49;10.77;;;3.08;;
44248;SDS011;29923;48.718;9.272;2022-07-10T06:18:14;6.30;;;2.90;;
44248;SDS011;29923;48.718;9.272;2022-07-10T06:20:40;6.88;;;2.50;;
44248;SDS011;29923;48.718;9.272;2022-07-10T06:23:05;9.45;;;2.80;;
44248;SDS011;29923;48.718;9.272;2022-07-10T06:25:30;8.52;;;2.58;;
44248;SDS011;29923;48.718;9.272;2022-07-10T06:27:56;7.85;;;2.17;;
44248;SDS011;29923;48.718;9.272;2022-07-10T06:30:21;7.80;;;3.42;;
44248;SDS011;29923;48.718;9.272;2022-07-10T06:32:46;3.92;;;1.73;;
44248;SDS011;29923;48.718;9.272;2022-07-10T06:35:12;6.72;;;2.03;;
44248;SDS011;29923;48.718;9.272;2022-07-10T06:37:37;7.30;;;2.35;;
44248;SDS011;29923;48.718;9.272;2022-07-10T06:40:03;6.22;;;2.08;;
44248;SDS011;29923;48.718;9.272;2022-07-10T06:42:29;6.80;;;2.45;;
44248;SDS011;29923;48.718;9.272;2022-07-10T06:44:54;6.35;;;2.40;;
44248;SDS011;29923;48.718;9.272;2022-07-10T06:47:20;10.63;;;2.22;;
44248;SDS011;29923;48.718;9.272;2022-07-10T06:50:04;10.20;;;2.63;;
44248;SDS011;29923;48.718;9.272;2022-07-10T06:52:34;5.10;;;2.10;;
44248;SDS011;29923;48.718;9.272;2022-07-10T06:55:00;7.68;;;2.10;;
44248;SDS011;29923;48.718;9.272;2022-07-10T06:57:26;5.60;;;2.30;;
44248;SDS011;29923;48.718;9.272;2022-07-10T06:59:52;6.93;;;2.28;;
44248;SDS011;29923;48.718;9.272;2022-07-10T07:02:17;8.27;;;2.70;;
44248;SDS011;29923;48.718;9.272;2022-07-10T07:04:43;4.65;;;2.28;;
44248;SDS011;29923;48.718;9.272;2022-07-10T07:07:10;7.70;;;3.10;;
44248;SDS011;29923;48.718;9.272;2022-07-10T07:09:36;9.93;;;2.85;;
44248;SDS011;29923;48.718;9.272;2022-07-10T07:12:01;8.60;;;2.67;;
44248;SDS011;29923;48.718;9.272;2022-07-10T07:14:28;5.15;;;2.85;;
44248;SDS011;29923;48.718;9.272;2022-07-10T07:16:54;7.30;;;2.20;;
44248;SDS011;29923;48.718;9.272;2022-07-10T07:19:24;6.13;;;2.47;;
44248;SDS011;29923;48.718;9.272;2022-07-10T07:21:59;5.10;;;2.35;;
44248;SDS011;29923;48.718;9.272;2022-07-10T07:24:43;5.03;;;2.22;;
44248;SDS011;29923;48.718;9.272;2022-07-10T07:27:09;12.13;;;2.88;;
44248;SDS011;29923;48.718;9.272;2022-07-10T07:29:35;6.63;;;2.20;;
44248;SDS011;29923;48.718;9.272;2022-07-10T07:32:00;8.35;;;2.03;;
44248;SDS011;29923;48.718;9.272;2022-07-10T07:34:25;13.60;;;2.72;;
44248;SDS011;29923;48.718;9.272;2022-07-10T07:36:51;3.67;;;1.80;;
44248;SDS011;29923;48.718;9.272;2022-07-10T07:39:16;3.40;;;1.77;;
44248;SDS011;29923;48.718;9.272;2022-07-10T07:41:42;9.15;;;2.05;;
44248;SDS011;29923;48.718;9.272;2022-07-10T07:44:07;5.40;;;1.63;;
44248;SDS011;29923;48.718;9.272;2022-07-10T07:46:32;9.52;;;2.20;;
44248;SDS011;29923;48.718;9.272;2022-07-10T07:48:58;6.28;;;1.80;;
44248;SDS011;29923;48.718;9.272;2022-07-10T07:51:25;5.53;;;1.80;;
44248;SDS011;29923;48.718;9.272;2022-07-10T07:53:50;8.10;;;2.35;;
44248;SDS011;29923;48.718;9.272;2022-07-10T07:56:15;6.88;;;2.10;;
44248;SDS011;29923;48.718;9.272;2022-07-10T07:58:41;7.30;;;1.90;;
44248;SDS011;29923;48.718;9.272;2022-07-10T08:01:06;8.13;;;2.28;;
44248;SDS011;29923;48.718;9.272;2022-07-10T08:03:32;4.35;;;2.00;;
44248;SDS011;29923;48.718;9.272;2022-07-10T08:05:57;7.10;;;2.20;;
44248;SDS011;29923;48.718;9.272;2022-07-10T08:08:22;7.82;;;1.90;;
44248;SDS011;29923;48.718;9.272;2022-07-10T08:10:48;4.80;;;2.00;;
44248;SDS011;29923;48.718;9.272;2022-07-10T08:13:13;8.18;;;1.90;;
44248;SDS011;29923;48.718;9.272;2022-07-10T08:15:38;8.18;;;1.92;;
44248;SDS011;29923;48.718;9.272;2022-07-10T08:18:04;7.88;;;2.10;;
44248;SDS011;29923;48.718;9.272;2022-07-10T08:20:29;7.82;;;1.90;;
44248;SDS011;29923;48.718;9.272;2022-07-10T08:22:55;9.57;;;2.47;;
44248;SDS011;29923;48.718;9.272;2022-07-10T08:25:21;7.28;;;2.22;;
44248;SDS011;29923;48.718;9.272;2022-07-10T08:27:47;4.47;;;2.08;;
44248;SDS011;29923;48.718;9.272;2022-07-10T08:30:12;11.70;;;2.22;;
44248;SDS011;29923;48.718;9.272;2022-07-10T08:32:39;12.10;;;2.35;;
44248;SDS011;29923;48.718;9.272;2022-07-10T08:35:05;5.28;;;1.83;;
44248;SDS011;29923;48.718;9.272;2022-07-10T08:37:36;5.97;;;1.95;;
44248;SDS011;29923;48.718;9.272;2022-07-10T08:40:04;4.07;;;2.05;;
44248;SDS011;29923;48.718;9.272;2022-07-10T08:42:30;6.70;;;2.05;;
44248;SDS011;29923;48.718;9.272;2022-07-10T08:44:57;4.18;;;1.63;;
44248;SDS011;29923;48.718;9.272;2022-07-10T08:47:23;6.13;;;1.90;;
44248;SDS011;29923;48.718;9.272;2022-07-10T08:49:50;10.02;;;3.20;;
44248;SDS011;29923;48.718;9.272;2022-07-10T08:52:26;8.10;;;2.03;;
44248;SDS011;29923;48.718;9.272;2022-07-10T08:54:57;5.80;;;2.55;;
44248;SDS011;29923;48.718;9.272;2022-07-10T08:57:23;7.18;;;2.65;;
44248;SDS011;29923;48.718;9.272;2022-07-10T08:59:49;8.68;;;3.05;;
44248;SDS011;29923;48.718;9.272;2022-07-10T09:02:14;7.65;;;2.22;;
44248;SDS011;29923;48.718;9.272;2022-07-10T09:04:40;9.38;;;2.78;;
44248;SDS011;29923;48.718;9.272;2022-07-10T09:07:06;7.90;;;2.22;;
44248;SDS011;29923;48.718;9.272;2022-07-10T09:09:31;7.15;;;2.50;;
44248;SDS011;29923;48.718;9.272;2022-07-10T09:11:57;5.88;;;1.77;;
44248;SDS011;29923;48.718;9.272;2022-07-10T09:14:23;8.27;;;2.42;;
44248;SDS011;29923;48.718;9.272;2022-07-10T09:16:51;6.10;;;2.05;;
44248;SDS011;29923;48.718;9.272;2022-07-10T09:21:53;5.22;;;1.98;;
44248;SDS011;29923;48.718;9.272;2022-07-10T09:24:20;6.00;;;1.77;;
44248;SDS011;29923;48.718;9.272;2022-07-10T09:29:28;8.20;;;1.67;;
44248;SDS011;29923;48.718;9.272;2022-07-10T09:34:39;3.40;;;1.48;;
44248;SDS011;29923;48.718;9.272;2022-07-10T09:37:24;3.55;;;1.80;;
44248;SDS011;29923;48.718;9.272;2022-07-10T09:40:02;9.27;;;1.55;;
44248;SDS011;29923;48.718;9.272;2022-07-10T09:42:35;6.28;;;1.73;;
44248;SDS011;29923;48.718;9.272;2022-07-10T09:52:53;7.13;;;1.83;;
44248;SDS011;29923;48.718;9.272;2022-07-10T09:55:23;7.85;;;2.35;;
44248;SDS011;29923;48.718;9.272;2022-07-10T09:57:52;6.75;;;1.70;;
44248;SDS011;29923;48.718;9.272;2022-07-10T10:00:20;3.55;;;1.35;;
44248;SDS011;29923;48.718;9.272;2022-07-10T10:02:50;6.43;;;1.70;;
44248;SDS011;29923;48.718;9.272;2022-07-10T10:05:18;9.20;;;2.08;;
44248;SDS011;29923;48.718;9.272;2022-07-10T10:07:43;3.67;;;1.92;;
44248;SDS011;29923;48.718;9.272;2022-07-10T10:10:10;3.50;;;1.33;;
44248;SDS011;29923;48.718;9.272;2022-07-10T10:12:47;10.48;;;1.98;;
44248;SDS011;29923;48.718;9.272;2022-07-10T10:15:13;5.50;;;1.80;;
44248;SDS011;29923;48.718;9.272;2022-07-10T10:17:40;6.03;;;2.45;;
44248;SDS011;29923;48.718;9.272;2022-07-10T10:20:06;6.43;;;1.50;;
44248;SDS011;29923;48.718;9.272;2022-07-10T10:22:50;2.63;;;1.40;;
44248;SDS011;29923;48.718;9.272;2022-07-10T10:25:17;3.72;;;1.08;;
44248;SDS011;29923;48.718;9.272;2022-07-10T10:27:43;5.07;;;1.38;;
44248;SDS011;29923;48.718;9.272;2022-07-10T10:30:09;9.13;;;1.92;;
44248;SDS011;29923;48.718;9.272;2022-07-10T10:32:41;6.70;;;2.10;;
44248;SDS011;29923;48.718;9.272;2022-07-10T10:35:07;7.25;;;1.88;;
44248;SDS011;29923;48.718;9.272;2022-07-10T10:37:38;4.47;;;1.45;;
44248;SDS011;29923;48.718;9.272;2022-07-10T10:40:08;3.20;;;1.50;;
44248;SDS011;29923;48.718;9.272;2022-07-10T10:42:43;5.03;;;1.50;;
44248;SDS011;29923;48.718;9.272;2022-07-10T10:45:21;8.73;;;1.52;;
44248;SDS011;29923;48.718;9.272;2022-07-10T10:50:37;4.65;;;1.50;;
44248;SDS011;29923;48.718;9.272;2022-07-10T10:53:11;3.67;;;1.40;;
44248;SDS011;29923;48.718;9.272;2022-07-10T10:55:38;3.88;;;1.40;;
44248;SDS011;29923;48.718;9.272;2022-07-10T10:58:12;7.13;;;1.48;;
44248;SDS011;29923;48.718;9.272;2022-07-10T11:00:39;8.65;;;3.30;;
44248;SDS011;29923;48.718;9.272;2022-07-10T11:03:12;4.55;;;1.20;;
44248;SDS011;29923;48.718;9.272;2022-07-10T11:05:39;4.05;;;1.25;;
44248;SDS011;29923;48.718;9.272;2022-07-10T11:08:06;4.88;;;1.50;;
44248;SDS011;29923;48.718;9.272;2022-07-10T11:10:33;4.40;;;1.30;;
44248;SDS011;29923;48.718;9.272;2022-07-10T11:13:07;8.27;;;1.40;;
44248;SDS011;29923;48.718;9.272;2022-07-10T11:15:33;4.97;;;1.67;;
44248;SDS011;29923;48.718;9.272;2022-07-10T11:18:04;8.10;;;1.73;;
44248;SDS011;29923;48.718;9.272;2022-07-10T11:20:34;7.53;;;1.50;;
44248;SDS011;29923;48.718;9.272;2022-07-10T11:31:08;7.95;;;3.00;;
44248;SDS011;29923;48.718;9.272;2022-07-10T11:33:40;6.65;;;1.70;;
44248;SDS011;29923;48.718;9.272;2022-07-10T11:36:11;4.53;;;1.98;;
44248;SDS011;29923;48.718;9.272;2022-07-10T11:38:39;8.55;;;2.92;;
44248;SDS011;29923;48.718;9.272;2022-07-10T11:41:11;3.72;;;1.52;;
44248;SDS011;29923;48.718;9.272;2022-07-10T11:43:47;8.07;;;2.22;;
44248;SDS011;29923;48.718;9.272;2022-07-10T11:46:17;3.80;;;1.58;;
44248;SDS011;29923;48.718;9.272;2022-07-10T11:48:43;4.60;;;1.40;;
44248;SDS011;29923;48.718;9.272;2022-07-10T11:51:22;2.80;;;1.23;;
44248;SDS011;29923;48.718;9.272;2022-07-10T11:53:58;4.22;;;1.40;;
44248;SDS011;29923;48.718;9.272;2022-07-10T11:56:25;5.78;;;1.67;;
44248;SDS011;29923;48.718;9.272;2022-07-10T11:58:58;3.40;;;1.88;;
44248;SDS011;29923;48.718;9.272;2022-07-10T12:01:24;10.27;;;1.65;;
44248;SDS011;29923;48.718;9.272;2022-07-10T12:06:26;2.85;;;1.63;;
44248;SDS011;29923;48.718;9.272;2022-07-10T12:08:52;3.58;;;1.70;;
44248;SDS011;29923;48.718;9.272;2022-07-10T12:11:18;8.75;;;1.77;;
44248;SDS011;29923;48.718;9.272;2022-07-10T12:13:45;3.80;;;1.25;;
44248;SDS011;29923;48.718;9.272;2022-07-10T12:16:11;3.90;;;1.15;;
44248;SDS011;29923;48.718;9.272;2022-07-10T12:18:37;7.82;;;1.45;;
44248;SDS011;29923;48.718;9.272;2022-07-10T12:21:03;2.97;;;1.40;;
44248;SDS011;29923;48.718;9.272;2022-07-10T12:23:29;3.90;;;1.30;;
44248;SDS011;29923;48.718;9.272;2022-07-10T12:25:55;8.70;;;1.92;;
44248;SDS011;29923;48.718;9.272;2022-07-10T12:28:21;4.22;;;1.30;;
44248;SDS011;29923;48.718;9.272;2022-07-10T12:30:47;3.88;;;1.25;;
44248;SDS011;29923;48.718;9.272;2022-07-10T12:33:20;3.15;;;1.30;;
44248;SDS011;29923;48.718;9.272;2022-07-10T12:38:19;5.60;;;1.23;;
44248;SDS011;29923;48.718;9.272;2022-07-10T12:40:45;12.27;;;6.43;;
44248;SDS011;29923;48.718;9.272;2022-07-10T12:43:11;3.20;;;1.80;;
44248;SDS011;29923;48.718;9.272;2022-07-10T12:45:37;4.85;;;1.40;;
44248;SDS011;29923;48.718;9.272;2022-07-10T12:48:04;3.38;;;1.40;;
44248;SDS011;29923;48.718;9.272;2022-07-10T12:50:31;6.65;;;2.05;;
44248;SDS011;29923;48.718;9.272;2022-07-10T12:53:09;5.50;;;2.53;;
44248;SDS011;29923;48.718;9.272;2022-07-10T12:55:35;5.75;;;1.65;;
44248;SDS011;29923;48.718;9.272;2022-07-10T12:58:06;3.13;;;1.13;;
44248;SDS011;29923;48.718;9.272;2022-07-10T13:00:43;3.15;;;1.17;;
44248;SDS011;29923;48.718;9.272;2022-07-10T13:03:11;3.35;;;1.30;;
44248;SDS011;29923;48.718;9.272;2022-07-10T13:05:43;5.43;;;1.20;;
44248;SDS011;29923;48.718;9.272;2022-07-10T13:10:37;4.07;;;1.00;;
44248;SDS011;29923;48.718;9.272;2022-07-10T13:13:04;4.78;;;1.45;;
44248;SDS011;29923;48.718;9.272;2022-07-10T13:15:30;3.45;;;1.20;;
44248;SDS011;29923;48.718;9.272;2022-07-10T13:17:58;3.13;;;1.23;;
44248;SDS011;29923;48.718;9.272;2022-07-10T13:20:23;4.05;;;1.48;;
44248;SDS011;29923;48.718;9.272;2022-07-10T13:22:49;3.83;;;1.13;;
44248;SDS011;29923;48.718;9.272;2022-07-10T13:25:14;5.40;;;1.17;;
44248;SDS011;29923;48.718;9.272;2022-07-10T13:27:40;4.47;;;1.58;;
44248;SDS011;29923;48.718;9.272;2022-07-10T13:30:07;3.47;;;0.90;;
44248;SDS011;29923;48.718;9.272;2022-07-10T13:32:33;4.38;;;1.30;;
44248;SDS011;29923;48.718;9.272;2022-07-10T13:34:59;5.18;;;1.33;;
44248;SDS011;29923;48.718;9.272;2022-07-10T13:37:24;4.28;;;0.95;;
44248;SDS011;29923;48.718;9.272;2022-07-10T13:39:50;2.65;;;1.10;;
44248;SDS011;29923;48.718;9.272;2022-07-10T13:42:15;4.93;;;2.10;;
44248;SDS011;29923;48.718;9.272;2022-07-10T13:44:40;5.28;;;2.08;;
44248;SDS011;29923;48.718;9.272;2022-07-10T13:47:06;4.80;;;0.93;;
44248;SDS011;29923;48.718;9.272;2022-07-10T13:49:31;6.80;;;1.00;;
44248;SDS011;29923;48.718;9.272;2022-07-10T13:51:56;6.50;;;1.42;;
44248;SDS011;29923;48.718;9.272;2022-07-10T13:54:22;2.85;;;1.20;;
44248;SDS011;29923;48.718;9.272;2022-07-10T13:56:48;2.58;;;0.93;;
44248;SDS011;29923;48.718;9.272;2022-07-10T13:59:13;4.57;;;0.95;;
44248;SDS011;29923;48.718;9.272;2022-07-10T14:01:38;4.70;;;1.05;;
44248;SDS011;29923;48.718;9.272;2022-07-10T14:04:04;3.13;;;1.10;;
44248;SDS011;29923;48.718;9.272;2022-07-10T14:06:29;2.35;;;0.88;;
44248;SDS011;29923;48.718;9.272;2022-07-10T14:08:55;5.22;;;1.08;;
44248;SDS011;29923;48.718;9.272;2022-07-10T14:11:20;2.65;;;0.98;;
44248;SDS011;29923;48.718;9.272;2022-07-10T14:13:46;1.73;;;1.00;;
44248;SDS011;29923;48.718;9.272;2022-07-10T14:16:11;6.00;;;1.25;;
44248;SDS011;29923;48.718;9.272;2022-07-10T14:18:37;3.13;;;1.00;;
44248;SDS011;29923;48.718;9.272;2022-07-10T14:21:09;3.83;;;0.93;;
44248;SDS011;29923;48.718;9.272;2022-07-10T14:23:36;2.90;;;1.08;;
44248;SDS011;29923;48.718;9.272;2022-07-10T14:26:03;4.22;;;1.27;;
44248;SDS011;29923;48.718;9.272;2022-07-10T14:28:30;4.35;;;1.60;;
44248;SDS011;29923;48.718;9.272;2022-07-10T14:30:56;3.15;;;1.00;;
44248;SDS011;29923;48.718;9.272;2022-07-10T14:33:24;2.05;;;0.73;;
44248;SDS011;29923;48.718;9.272;2022-07-10T14:35:49;5.85;;;1.10;;
44248;SDS011;29923;48.718;9.272;2022-07-10T14:38:15;1.70;;;0.98;;
44248;SDS011;29923;48.718;9.272;2022-07-10T14:40:40;9.80;;;1.60;;
44248;SDS011;29923;48.718;9.272;2022-07-10T14:43:05;6.25;;;1.30;;
44248;SDS011;29923;48.718;9.272;2022-07-10T14:45:31;3.25;;;1.33;;
44248;SDS011;29923;48.718;9.272;2022-07-10T14:47:56;2.10;;;1.00;;
44248;SDS011;29923;48.718;9.272;2022-07-10T14:50:22;3.30;;;1.20;;
44248;SDS011;29923;48.718;9.272;2022-07-10T14:52:48;5.15;;;1.50;;
44248;SDS011;29923;48.718;9.272;2022-07-10T14:55:13;5.60;;;1.50;;
44248;SDS011;29923;48.718;9.272;2022-07-10T14:57:39;3.15;;;0.85;;
44248;SDS011;29923;48.718;9.272;2022-07-10T15:00:04;2.35;;;0.95;;
44248;SDS011;29923;48.718;9.272;2022-07-10T15:02:30;1.83;;;0.80;;
44248;SDS011;29923;48.718;9.272;2022-07-10T15:04:56;3.92;;;1.27;;
44248;SDS011;29923;48.718;9.272;2022-07-10T15:07:21;2.60;;;1.00;;
44248;SDS011;29923;48.718;9.272;2022-07-10T15:09:47;5.07;;;0.98;;
44248;SDS011;29923;48.718;9.272;2022-07-10T15:12:12;2.15;;;1.10;;
44248;SDS011;29923;48.718;9.272;2022-07-10T15:14:38;4.65;;;1.00;;
44248;SDS011;29923;48.718;9.272;2022-07-10T15:17:04;9.43;;;1.00;;